Time;durP1;ratioP1;P1;durP2;ratioP2;P2;SDS_P1;SDS_P2;PMS_P1;PMS_P2;Temp;Humidity;BMP_temperature;BMP_pressure;BME280_temperature;BME280_humidity;BME280_pressure;Samples;Min_cycle;Max_cycle;Signal;HPM_P1;HPM_P2
2022/06/24 00:02:17;;;;;;;19.15;10.35;;;;;;;;;;6278657;22;20075;-70
2022/06/24 00:04:49;;;;;;;28.50;14.02;;;;;;;;;;6278416;22;20076;-70
2022/06/24 00:07:15;;;;;;;23.75;13.23;;;;;;;;;;6278295;22;20436;-70
2022/06/24 00:09:41;;;;;;;23.70;11.55;;;;;;;;;;6278412;22;20083;-70
2022/06/24 00:12:08;;;;;;;20.65;11.07;;;;;;;;;;6278697;22;20355;-70
2022/06/24 00:14:35;;;;;;;21.23;11.07;;;;;;;;;;6278294;22;20016;-70
2022/06/24 00:17:01;;;;;;;17.77;10.32;;;;;;;;;;6278369;22;19999;-70
2022/06/24 00:19:28;;;;;;;26.48;11.18;;;;;;;;;;6278457;22;20002;-70
2022/06/24 00:22:05;;;;;;;21.17;11.35;;;;;;;;;;6278440;22;20007;-71
2022/06/24 00:24:30;;;;;;;18.70;10.48;;;;;;;;;;6278719;22;20008;-70
2022/06/24 00:26:56;;;;;;;17.10;10.52;;;;;;;;;;6278539;22;20011;-70
2022/06/24 00:29:21;;;;;;;19.08;10.70;;;;;;;;;;6278364;22;20358;-70
2022/06/24 00:32:19;;;;;;;21.33;10.88;;;;;;;;;;6278398;22;19988;-71
2022/06/24 00:34:44;;;;;;;24.88;11.55;;;;;;;;;;6210079;22;20317;-70
2022/06/24 00:37:28;;;;;;;19.60;11.27;;;;;;;;;;6278196;22;20015;-70
2022/06/24 00:39:54;;;;;;;16.30;10.77;;;;;;;;;;6278280;22;20325;-71
2022/06/24 00:42:20;;;;;;;19.83;11.07;;;;;;;;;;6278095;22;20470;-70
2022/06/24 00:44:56;;;;;;;19.67;11.05;;;;;;;;;;6278063;22;20014;-71
2022/06/24 00:47:22;;;;;;;24.00;11.88;;;;;;;;;;6278738;22;20061;-70
2022/06/24 00:49:48;;;;;;;17.17;11.05;;;;;;;;;;6277968;22;20004;-70
2022/06/24 00:52:15;;;;;;;16.83;10.75;;;;;;;;;;6278354;22;20041;-70
2022/06/24 00:54:42;;;;;;;22.13;12.07;;;;;;;;;;6278069;22;20304;-70
2022/06/24 00:57:08;;;;;;;23.17;12.82;;;;;;;;;;6278206;22;20003;-70
2022/06/24 00:59:34;;;;;;;21.80;13.13;;;;;;;;;;6277963;22;20049;-70
2022/06/24 01:02:03;;;;;;;24.10;13.13;;;;;;;;;;6278136;22;20007;-71
2022/06/24 01:04:33;;;;;;;22.70;13.50;;;;;;;;;;6277709;22;20461;-70
2022/06/24 01:06:58;;;;;;;23.58;12.65;;;;;;;;;;6277710;22;20000;-70
2022/06/24 01:09:23;;;;;;;24.95;13.93;;;;;;;;;;6277877;22;20058;-71
2022/06/24 01:11:48;;;;;;;22.45;15.05;;;;;;;;;;6278181;22;20046;-70
2022/06/24 01:14:14;;;;;;;22.92;13.60;;;;;;;;;;6277652;22;20482;-70
2022/06/24 01:16:40;;;;;;;24.58;15.27;;;;;;;;;;6277567;22;20401;-70
2022/06/24 01:19:06;;;;;;;27.95;16.55;;;;;;;;;;6277924;22;20008;-70
2022/06/24 01:21:37;;;;;;;25.67;16.38;;;;;;;;;;6277921;22;20007;-71
2022/06/24 01:24:06;;;;;;;23.92;15.57;;;;;;;;;;6277910;22;19995;-70
2022/06/24 01:26:31;;;;;;;32.83;17.20;;;;;;;;;;6278141;22;20039;-70
2022/06/24 01:28:56;;;;;;;31.17;16.77;;;;;;;;;;6277912;22;20359;-70
2022/06/24 01:31:22;;;;;;;27.88;16.65;;;;;;;;;;6277724;22;20000;-70
2022/06/24 01:33:47;;;;;;;31.65;17.10;;;;;;;;;;6277530;22;20094;-71
2022/06/24 01:36:12;;;;;;;28.77;17.52;;;;;;;;;;6277855;22;20067;-70
2022/06/24 01:38:37;;;;;;;31.23;16.67;;;;;;;;;;6277574;22;20015;-70
2022/06/24 01:41:02;;;;;;;35.60;17.20;;;;;;;;;;6276450;22;20000;-71
2022/06/24 01:43:28;;;;;;;27.42;16.30;;;;;;;;;;6277328;22;20021;-70
2022/06/24 01:45:53;;;;;;;26.92;15.27;;;;;;;;;;6276645;22;20072;-71
2022/06/24 01:48:18;;;;;;;30.33;17.50;;;;;;;;;;6277396;22;20069;-70
2022/06/24 01:50:43;;;;;;;37.20;17.58;;;;;;;;;;6277237;22;19996;-70
2022/06/24 01:53:09;;;;;;;29.00;16.98;;;;;;;;;;6277569;22;20003;-70
2022/06/24 01:55:34;;;;;;;29.65;16.20;;;;;;;;;;6277302;22;20091;-71
2022/06/24 01:57:59;;;;;;;29.00;15.65;;;;;;;;;;6277702;22;20312;-70
2022/06/24 02:00:25;;;;;;;31.08;17.33;;;;;;;;;;6276946;22;20023;-70
2022/06/24 02:02:50;;;;;;;28.60;15.75;;;;;;;;;;6277561;22;20011;-70
2022/06/24 02:05:16;;;;;;;27.77;16.50;;;;;;;;;;6277448;22;19991;-70
2022/06/24 02:07:41;;;;;;;30.85;17.52;;;;;;;;;;6277274;22;20130;-70
2022/06/24 02:15:34;;;;;;;26.30;16.80;;;;;;;;;;6276915;22;19925;-70
2022/06/24 02:18:00;;;;;;;30.60;17.05;;;;;;;;;;6277271;22;20673;-70
2022/06/24 02:20:25;;;;;;;27.55;15.90;;;;;;;;;;6277296;22;20442;-70
2022/06/24 02:22:50;;;;;;;27.60;16.52;;;;;;;;;;6277244;22;20057;-70
2022/06/24 02:25:17;;;;;;;28.40;15.55;;;;;;;;;;6277294;22;20004;-70
2022/06/24 02:27:43;;;;;;;25.20;14.82;;;;;;;;;;6277132;22;20083;-71
2022/06/24 02:30:08;;;;;;;22.95;15.32;;;;;;;;;;6276613;22;20027;-70
2022/06/24 02:32:33;;;;;;;24.20;15.98;;;;;;;;;;6277313;22;20008;-70
2022/06/24 02:34:59;;;;;;;24.48;14.90;;;;;;;;;;6277192;22;19996;-70
2022/06/24 02:37:24;;;;;;;23.65;15.52;;;;;;;;;;6277097;22;20012;-70
2022/06/24 02:39:49;;;;;;;23.80;15.20;;;;;;;;;;6277028;22;20026;-71
2022/06/24 02:42:14;;;;;;;23.77;14.48;;;;;;;;;;6276878;22;20011;-70
2022/06/24 02:44:39;;;;;;;20.23;13.27;;;;;;;;;;6276968;22;19999;-70
2022/06/24 02:47:05;;;;;;;18.45;13.05;;;;;;;;;;6277097;22;20090;-70
2022/06/24 02:49:30;;;;;;;22.27;13.18;;;;;;;;;;6276968;22;20431;-70
2022/06/24 02:51:55;;;;;;;22.27;13.50;;;;;;;;;;6276963;22;20066;-70
2022/06/24 02:54:21;;;;;;;22.05;12.50;;;;;;;;;;6276716;22;20011;-71
2022/06/24 02:56:46;;;;;;;21.67;13.13;;;;;;;;;;6277015;22;20000;-71
2022/06/24 02:59:11;;;;;;;23.45;15.82;;;;;;;;;;6276827;22;20003;-70
2022/06/24 03:01:36;;;;;;;26.80;15.13;;;;;;;;;;6276991;22;20010;-71
2022/06/24 03:04:01;;;;;;;30.50;15.50;;;;;;;;;;6276758;22;20030;-71
2022/06/24 03:06:27;;;;;;;22.50;14.82;;;;;;;;;;6276869;22;20408;-71
2022/06/24 03:08:52;;;;;;;25.80;16.02;;;;;;;;;;6276877;22;20007;-70
2022/06/24 03:11:17;;;;;;;34.13;18.40;;;;;;;;;;6276766;22;20083;-70
2022/06/24 03:13:42;;;;;;;35.30;17.75;;;;;;;;;;6276903;22;20324;-70
2022/06/24 03:16:08;;;;;;;34.97;18.88;;;;;;;;;;6276513;22;20328;-71
2022/06/24 03:18:33;;;;;;;32.67;17.67;;;;;;;;;;6277083;22;20419;-71
2022/06/24 03:20:58;;;;;;;33.33;17.40;;;;;;;;;;6276710;22;20422;-71
2022/06/24 03:23:23;;;;;;;37.65;19.00;;;;;;;;;;6276927;22;20000;-70
2022/06/24 03:25:49;;;;;;;34.88;17.58;;;;;;;;;;6276605;22;19996;-70
2022/06/24 03:28:14;;;;;;;29.17;17.13;;;;;;;;;;6249724;22;19992;-70
2022/06/24 03:30:39;;;;;;;31.88;17.35;;;;;;;;;;6276071;22;20004;-71
2022/06/24 03:33:05;;;;;;;29.20;16.95;;;;;;;;;;6276835;22;20050;-70
2022/06/24 03:35:30;;;;;;;35.22;17.80;;;;;;;;;;6276387;22;20007;-71
2022/06/24 03:37:55;;;;;;;31.23;16.58;;;;;;;;;;6276718;22;20447;-70
2022/06/24 03:40:21;;;;;;;29.63;16.63;;;;;;;;;;6276793;22;20039;-70
2022/06/24 03:42:46;;;;;;;28.55;14.85;;;;;;;;;;6276695;22;20316;-70
2022/06/24 03:45:11;;;;;;;27.08;15.10;;;;;;;;;;6276042;22;20012;-70
2022/06/24 03:47:36;;;;;;;28.95;15.50;;;;;;;;;;6276416;22;20007;-70
2022/06/24 03:50:02;;;;;;;28.45;14.82;;;;;;;;;;6276466;22;20075;-70
2022/06/24 03:52:27;;;;;;;29.02;13.95;;;;;;;;;;6276724;22;20022;-70
2022/06/24 03:54:52;;;;;;;24.50;13.27;;;;;;;;;;6275999;22;20022;-71
2022/06/24 03:57:18;;;;;;;23.65;13.07;;;;;;;;;;6276258;22;19999;-70
2022/06/24 03:59:43;;;;;;;25.70;12.95;;;;;;;;;;6276405;22;20000;-70
2022/06/24 04:02:08;;;;;;;20.23;12.20;;;;;;;;;;6276651;22;20000;-71
2022/06/24 04:04:34;;;;;;;20.50;12.68;;;;;;;;;;6276350;22;20293;-70
2022/06/24 04:06:59;;;;;;;21.60;12.60;;;;;;;;;;6276535;22;20420;-70
2022/06/24 04:09:24;;;;;;;24.08;13.35;;;;;;;;;;6276555;22;20068;-70
2022/06/24 04:11:49;;;;;;;20.50;12.25;;;;;;;;;;6276660;22;19996;-70
2022/06/24 04:15:13;;;;;;;27.85;13.02;;;;;;;;;;6276539;22;20320;-70
2022/06/24 04:17:01;;;;;;;22.85;11.93;;;;;;;;;;6275734;22;20011;-70
2022/06/24 04:19:26;;;;;;;19.50;12.23;;;;;;;;;;6276315;22;20007;-70
2022/06/24 04:21:51;;;;;;;20.95;13.05;;;;;;;;;;6276433;22;19999;-71
2022/06/24 04:24:16;;;;;;;23.05;12.95;;;;;;;;;;6276191;22;20003;-70
2022/06/24 04:26:42;;;;;;;22.90;13.30;;;;;;;;;;6276448;22;20015;-70
2022/06/24 04:29:07;;;;;;;22.33;12.57;;;;;;;;;;6276509;22;20426;-70
2022/06/24 04:31:32;;;;;;;20.73;13.18;;;;;;;;;;6275940;22;20116;-70
2022/06/24 04:33:57;;;;;;;23.55;12.98;;;;;;;;;;6275827;22;20011;-71
2022/06/24 04:36:23;;;;;;;21.23;12.43;;;;;;;;;;6276291;22;20000;-70
2022/06/24 04:38:48;;;;;;;21.25;12.65;;;;;;;;;;6276076;22;20018;-70
2022/06/24 04:41:14;;;;;;;24.42;12.13;;;;;;;;;;6276377;22;20036;-70
2022/06/24 04:43:39;;;;;;;18.73;10.88;;;;;;;;;;6277709;22;20328;-70
2022/06/24 04:46:04;;;;;;;22.27;11.98;;;;;;;;;;6278165;22;19998;-70
2022/06/24 04:48:30;;;;;;;18.38;10.75;;;;;;;;;;6278195;22;20437;-70
2022/06/24 04:50:55;;;;;;;15.25;10.32;;;;;;;;;;6277944;22;20436;-71
2022/06/24 04:53:21;;;;;;;14.85;9.68;;;;;;;;;;6277965;22;20065;-71
2022/06/24 04:55:46;;;;;;;15.48;9.35;;;;;;;;;;6278378;22;20428;-71
2022/06/24 04:58:11;;;;;;;16.05;9.57;;;;;;;;;;6278215;22;20054;-70
2022/06/24 05:00:37;;;;;;;15.75;9.43;;;;;;;;;;6277925;22;19987;-70
2022/06/24 05:03:03;;;;;;;13.88;9.10;;;;;;;;;;6278056;22;20004;-70
2022/06/24 05:05:28;;;;;;;14.82;8.57;;;;;;;;;;6277907;22;20294;-70
2022/06/24 05:07:53;;;;;;;12.93;8.25;;;;;;;;;;6278061;22;20042;-71
2022/06/24 05:10:18;;;;;;;13.18;7.35;;;;;;;;;;6278009;22;20008;-71
2022/06/24 05:12:44;;;;;;;11.95;7.32;;;;;;;;;;6277986;22;20312;-70
2022/06/24 05:15:09;;;;;;;11.13;6.90;;;;;;;;;;6277823;22;20000;-71
2022/06/24 05:17:34;;;;;;;10.05;6.90;;;;;;;;;;6278050;22;20046;-70
2022/06/24 05:19:59;;;;;;;10.02;5.75;;;;;;;;;;6277292;22;20000;-70
2022/06/24 05:22:25;;;;;;;7.32;5.50;;;;;;;;;;6277996;22;19999;-71
2022/06/24 05:24:50;;;;;;;7.53;4.90;;;;;;;;;;6277726;22;20007;-70
2022/06/24 05:27:15;;;;;;;9.82;4.90;;;;;;;;;;6277560;22;20010;-70
2022/06/24 05:29:40;;;;;;;10.88;5.32;;;;;;;;;;6277429;22;19992;-71
2022/06/24 05:32:06;;;;;;;6.93;5.03;;;;;;;;;;6277690;22;20003;-70
2022/06/24 05:34:31;;;;;;;6.55;4.10;;;;;;;;;;6277539;22;20305;-70
2022/06/24 05:36:56;;;;;;;8.00;4.55;;;;;;;;;;6277925;22;20018;-71
2022/06/24 05:39:21;;;;;;;7.00;4.07;;;;;;;;;;6277217;22;20015;-71
2022/06/24 05:41:47;;;;;;;9.13;4.50;;;;;;;;;;6277296;22;20042;-71
2022/06/24 05:44:12;;;;;;;7.32;3.70;;;;;;;;;;6277648;22;20045;-71
2022/06/24 05:46:38;;;;;;;7.63;3.85;;;;;;;;;;6277623;22;20095;-70
2022/06/24 05:49:03;;;;;;;6.53;3.60;;;;;;;;;;6277921;22;19999;-71
2022/06/24 05:51:29;;;;;;;7.47;3.03;;;;;;;;;;6277810;22;20289;-71
2022/06/24 05:56:38;;;;;;;5.40;2.72;;;;;;;;;;6277384;22;20164;-72
2022/06/24 05:59:04;;;;;;;5.60;2.88;;;;;;;;;;6277440;22;20443;-71
2022/06/24 06:01:29;;;;;;;3.88;2.80;;;;;;;;;;6277052;22;20028;-72
2022/06/24 06:03:55;;;;;;;5.45;2.80;;;;;;;;;;6277461;22;20003;-72
2022/06/24 06:06:20;;;;;;;8.88;2.85;;;;;;;;;;6250224;22;20012;-72
2022/06/24 06:08:45;;;;;;;3.95;2.80;;;;;;;;;;6277606;22;20427;-71
2022/06/24 06:11:18;;;;;;;5.63;2.92;;;;;;;;;;6277426;22;19995;-71
2022/06/24 06:13:45;;;;;;;8.68;3.10;;;;;;;;;;6277278;22;20011;-71
2022/06/24 06:16:10;;;;;;;7.05;2.60;;;;;;;;;;6277099;22;20008;-72
2022/06/24 06:18:35;;;;;;;4.15;2.78;;;;;;;;;;6277459;22;19999;-71
2022/06/24 06:21:02;;;;;;;4.72;2.80;;;;;;;;;;6277414;22;19992;-72
2022/06/24 06:23:28;;;;;;;5.90;2.60;;;;;;;;;;6277099;22;20015;-72
2022/06/24 06:25:53;;;;;;;4.07;2.63;;;;;;;;;;6277346;22;20038;-72
2022/06/24 06:28:18;;;;;;;6.20;2.67;;;;;;;;;;6277350;22;19997;-72
2022/06/24 06:30:44;;;;;;;5.50;2.70;;;;;;;;;;6277257;22;20039;-72
2022/06/24 06:33:10;;;;;;;6.28;3.00;;;;;;;;;;6277404;22;20035;-71
2022/06/24 06:35:35;;;;;;;5.70;2.70;;;;;;;;;;6276981;22;19996;-70
2022/06/24 06:38:00;;;;;;;4.03;2.70;;;;;;;;;;6277383;22;20011;-72
2022/06/24 06:40:26;;;;;;;5.70;2.35;;;;;;;;;;6277579;22;20016;-72
2022/06/24 06:42:55;;;;;;;5.10;2.58;;;;;;;;;;6276907;22;19996;-72
2022/06/24 06:45:20;;;;;;;7.15;2.90;;;;;;;;;;6276463;22;20432;-72
2022/06/24 06:47:45;;;;;;;8.27;2.80;;;;;;;;;;6250072;22;20011;-72
2022/06/24 06:50:10;;;;;;;4.78;2.78;;;;;;;;;;6276962;22;19999;-72
2022/06/24 06:52:36;;;;;;;5.63;2.92;;;;;;;;;;6276916;22;20010;-72
2022/06/24 06:55:02;;;;;;;7.22;3.15;;;;;;;;;;6277245;22;20011;-71
2022/06/24 06:57:27;;;;;;;6.40;3.25;;;;;;;;;;6276883;22;20369;-72
2022/06/24 06:59:52;;;;;;;6.00;2.90;;;;;;;;;;6276970;22;20034;-72
2022/06/24 07:02:18;;;;;;;4.43;3.00;;;;;;;;;;6277047;22;20433;-71
2022/06/24 07:04:43;;;;;;;4.65;2.83;;;;;;;;;;6276554;22;20289;-71
2022/06/24 07:07:09;;;;;;;7.72;3.50;;;;;;;;;;6276674;22;20031;-71
2022/06/24 07:09:34;;;;;;;7.22;4.30;;;;;;;;;;6276753;22;20015;-71
2022/06/24 07:11:59;;;;;;;8.48;3.25;;;;;;;;;;6249837;22;20035;-71
2022/06/24 07:14:24;;;;;;;9.15;3.72;;;;;;;;;;6276701;22;20011;-71
2022/06/24 07:16:50;;;;;;;6.05;3.58;;;;;;;;;;6276641;22;20436;-70
2022/06/24 07:19:15;;;;;;;7.03;4.18;;;;;;;;;;6276835;22;20027;-72
2022/06/24 07:21:40;;;;;;;5.07;3.58;;;;;;;;;;6276717;22;20050;-71
2022/06/24 07:24:05;;;;;;;9.43;4.03;;;;;;;;;;6276895;22;20061;-71
2022/06/24 07:26:31;;;;;;;6.28;3.65;;;;;;;;;;6271464;22;20000;-72
2022/06/24 07:28:56;;;;;;;5.85;3.80;;;;;;;;;;6275411;22;20020;-72
2022/06/24 07:31:21;;;;;;;11.50;4.15;;;;;;;;;;6275902;22;20004;-71
2022/06/24 07:33:46;;;;;;;6.50;3.95;;;;;;;;;;6276633;22;20006;-71
2022/06/24 07:36:12;;;;;;;8.48;3.75;;;;;;;;;;6276069;22;20011;-71
2022/06/24 07:38:37;;;;;;;7.60;3.90;;;;;;;;;;6276161;22;20011;-71
2022/06/24 07:41:03;;;;;;;9.57;4.47;;;;;;;;;;6276686;22;20066;-72
2022/06/24 07:43:28;;;;;;;5.68;4.13;;;;;;;;;;6276206;22;20030;-70
2022/06/24 07:45:54;;;;;;;7.30;4.07;;;;;;;;;;6275822;22;20011;-71
2022/06/24 07:48:19;;;;;;;9.13;5.53;;;;;;;;;;6276339;22;19996;-71
2022/06/24 07:50:44;;;;;;;9.98;5.50;;;;;;;;;;6276602;22;20003;-71
2022/06/24 07:53:10;;;;;;;12.20;7.20;;;;;;;;;;6276033;22;20091;-72
2022/06/24 07:58:19;;;;;;;;;;;;;;;;;;6275731;22;20078;-72
2022/06/24 08:00:44;;;;;;;18.50;9.20;;;;;;;;;;6260903;22;19903;-72
2022/06/24 08:03:10;;;;;;;15.05;9.52;;;;;;;;;;6272067;22;20382;-72
2022/06/24 08:05:35;;;;;;;16.23;9.80;;;;;;;;;;6275141;22;20075;-71
2022/06/24 08:08:00;;;;;;;15.98;10.18;;;;;;;;;;6270245;22;19999;-70
2022/06/24 08:10:26;;;;;;;13.93;9.20;;;;;;;;;;6245987;22;20012;-72
2022/06/24 08:12:51;;;;;;;12.63;9.15;;;;;;;;;;6273647;22;20404;-71
2022/06/24 08:15:17;;;;;;;13.70;8.70;;;;;;;;;;6272473;22;20000;-72
2022/06/24 08:17:42;;;;;;;13.48;9.38;;;;;;;;;;6274769;22;20008;-71
2022/06/24 08:20:08;;;;;;;13.90;9.15;;;;;;;;;;6275018;22;19992;-72
2022/06/24 08:22:33;;;;;;;15.38;8.60;;;;;;;;;;6266344;22;20003;-72
2022/06/24 08:24:59;;;;;;;15.13;7.65;;;;;;;;;;6268692;22;20061;-72
2022/06/24 08:27:24;;;;;;;11.63;6.03;;;;;;;;;;6270270;22;20392;-71
2022/06/24 08:29:49;;;;;;;11.93;7.07;;;;;;;;;;6271466;22;19988;-71
2022/06/24 08:32:14;;;;;;;12.48;6.75;;;;;;;;;;6270769;22;20007;-71
2022/06/24 08:34:40;;;;;;;14.20;6.28;;;;;;;;;;6271059;22;20502;-72
2022/06/24 08:37:05;;;;;;;10.70;5.68;;;;;;;;;;6271357;22;20023;-72
2022/06/24 08:39:30;;;;;;;14.10;6.60;;;;;;;;;;6271043;22;20019;-71
2022/06/24 08:41:56;;;;;;;7.82;5.38;;;;;;;;;;6272639;22;20024;-72
2022/06/24 08:44:22;;;;;;;13.95;5.93;;;;;;;;;;6271805;22;19999;-71
2022/06/24 08:46:47;;;;;;;11.68;6.07;;;;;;;;;;6271235;22;20007;-71
2022/06/24 08:49:12;;;;;;;13.23;6.30;;;;;;;;;;6256411;22;19999;-71
2022/06/24 08:51:40;;;;;;;14.05;6.45;;;;;;;;;;6265107;22;19995;-71
2022/06/24 08:54:07;;;;;;;13.85;6.75;;;;;;;;;;6269615;22;20007;-71
2022/06/24 08:56:32;;;;;;;14.10;7.78;;;;;;;;;;6270641;22;19992;-71
2022/06/24 08:58:58;;;;;;;17.95;7.90;;;;;;;;;;6269969;22;20058;-71
2022/06/24 09:01:24;;;;;;;16.58;7.75;;;;;;;;;;6269958;22;20474;-71
2022/06/24 09:03:49;;;;;;;15.07;8.18;;;;;;;;;;6270805;22;19996;-71
2022/06/24 09:06:15;;;;;;;12.60;7.55;;;;;;;;;;6270127;22;20012;-71
2022/06/24 09:08:44;;;;;;;9.30;7.15;;;;;;;;;;6271901;22;20008;-71
2022/06/24 09:11:10;;;;;;;13.60;7.03;;;;;;;;;;6272191;22;19996;-71
2022/06/24 09:13:42;;;;;;;11.82;7.25;;;;;;;;;;6269739;22;20003;-71
2022/06/24 09:16:08;;;;;;;12.38;7.25;;;;;;;;;;6271246;22;20011;-71
2022/06/24 09:18:33;;;;;;;11.52;7.03;;;;;;;;;;6271048;22;20411;-72
2022/06/24 09:20:58;;;;;;;12.07;7.50;;;;;;;;;;6269140;22;19999;-72
2022/06/24 09:23:24;;;;;;;15.10;7.22;;;;;;;;;;6271060;22;20022;-71
2022/06/24 09:25:53;;;;;;;13.05;6.93;;;;;;;;;;6261667;22;19987;-71
2022/06/24 09:28:27;;;;;;;13.25;7.15;;;;;;;;;;6267522;22;20027;-71
2022/06/24 09:31:02;;;;;;;11.15;6.70;;;;;;;;;;6267996;22;20316;-71
2022/06/24 09:33:34;;;;;;;11.30;6.97;;;;;;;;;;6270218;22;20086;-71
2022/06/24 09:36:00;;;;;;;12.05;6.18;;;;;;;;;;6242213;22;20519;-71
2022/06/24 09:38:26;;;;;;;10.50;5.88;;;;;;;;;;6270835;22;20070;-71
2022/06/24 09:40:58;;;;;;;10.02;6.03;;;;;;;;;;6269621;22;20073;-71
2022/06/24 09:43:27;;;;;;;10.00;6.18;;;;;;;;;;6270683;22;20003;-71
2022/06/24 09:45:53;;;;;;;11.15;6.20;;;;;;;;;;6269923;22;19996;-71
2022/06/24 09:48:38;;;;;;;13.68;6.10;;;;;;;;;;6270193;22;20027;-71
2022/06/24 09:51:04;;;;;;;13.40;5.88;;;;;;;;;;6268127;22;20008;-71
2022/06/24 09:53:37;;;;;;;8.50;5.15;;;;;;;;;;6269786;22;20340;-72
2022/06/24 09:56:03;;;;;;;10.65;6.07;;;;;;;;;;6269331;22;20002;-71
2022/06/24 09:58:28;;;;;;;9.35;5.68;;;;;;;;;;6269732;22;20079;-71
2022/06/24 10:00:53;;;;;;;12.60;5.53;;;;;;;;;;6263619;22;20069;-72
2022/06/24 10:03:19;;;;;;;10.75;5.55;;;;;;;;;;6249845;22;20058;-71
2022/06/24 10:05:46;;;;;;;7.53;5.05;;;;;;;;;;6262942;22;20000;-71
2022/06/24 10:08:12;;;;;;;11.20;5.78;;;;;;;;;;6267234;22;20085;-71
2022/06/24 10:10:45;;;;;;;12.85;6.05;;;;;;;;;;6266748;22;20026;-71
2022/06/24 10:13:18;;;;;;;11.68;6.10;;;;;;;;;;6267691;22;20044;-71
2022/06/24 10:15:43;;;;;;;9.88;7.05;;;;;;;;;;6267236;22;20011;-71
2022/06/24 10:18:10;;;;;;;17.55;8.02;;;;;;;;;;6265666;22;19992;-71
2022/06/24 10:20:35;;;;;;;11.45;7.82;;;;;;;;;;6266882;22;20010;-71
2022/06/24 10:23:01;;;;;;;20.08;8.95;;;;;;;;;;6266090;22;19999;-71
2022/06/24 10:25:45;;;;;;;14.63;8.52;;;;;;;;;;6255663;22;20042;-72
2022/06/24 10:28:10;;;;;;;14.52;9.10;;;;;;;;;;6263944;22;20073;-72
2022/06/24 10:30:48;;;;;;;16.23;9.85;;;;;;;;;;6263133;22;20016;-71
2022/06/24 10:33:19;;;;;;;18.58;10.50;;;;;;;;;;6260422;22;20091;-71
2022/06/24 10:35:57;;;;;;;14.88;9.70;;;;;;;;;;6267923;22;20069;-71
2022/06/24 10:38:23;;;;;;;20.42;11.10;;;;;;;;;;6267209;22;20006;-71
2022/06/24 10:40:49;;;;;;;17.45;10.45;;;;;;;;;;6269109;22;20273;-71
2022/06/24 10:43:31;;;;;;;19.83;10.85;;;;;;;;;;6269116;22;20000;-71
2022/06/24 10:46:11;;;;;;;22.92;11.60;;;;;;;;;;6269460;22;20083;-71
2022/06/24 10:48:43;;;;;;;19.73;11.65;;;;;;;;;;6263880;22;20008;-72
2022/06/24 10:51:14;;;;;;;21.95;11.38;;;;;;;;;;6267839;22;19995;-72
2022/06/24 10:53:58;;;;;;;15.98;10.18;;;;;;;;;;6268679;22;20011;-72
2022/06/24 10:56:24;;;;;;;;;;;;;;;;;;6269787;22;20012;-72
2022/06/24 10:58:49;;;;;;;16.40;10.30;;;;;;;;;;6268987;22;19953;-72
2022/06/24 11:01:14;;;;;;;17.00;11.00;;;;;;;;;;6269357;22;20003;-72
2022/06/24 11:03:43;;;;;;;20.83;10.38;;;;;;;;;;6269628;22;20041;-71
2022/06/24 11:06:09;;;;;;;17.02;11.15;;;;;;;;;;6269876;22;20407;-72
2022/06/24 11:08:36;;;;;;;18.65;11.18;;;;;;;;;;6269452;22;19999;-72
2022/06/24 11:11:01;;;;;;;19.27;11.23;;;;;;;;;;6269820;22;20416;-72
2022/06/24 11:13:27;;;;;;;21.48;12.02;;;;;;;;;;6268545;22;20011;-72
2022/06/24 11:15:56;;;;;;;18.83;11.45;;;;;;;;;;6269637;22;20519;-71
2022/06/24 11:18:23;;;;;;;19.05;10.82;;;;;;;;;;6268716;22;20004;-72
2022/06/24 11:20:51;;;;;;;35.47;13.43;;;;;;;;;;6270294;22;19995;-72
2022/06/24 11:23:20;;;;;;;20.65;12.10;;;;;;;;;;6269440;22;20006;-71
2022/06/24 11:25:51;;;;;;;38.17;12.75;;;;;;;;;;6269598;22;20007;-71
2022/06/24 11:28:20;;;;;;;42.28;13.70;;;;;;;;;;6269662;22;19992;-72
2022/06/24 11:30:46;;;;;;;15.95;9.93;;;;;;;;;;6269023;22;20424;-71
2022/06/24 11:33:11;;;;;;;15.15;9.45;;;;;;;;;;6268924;22;20010;-71
2022/06/24 11:35:37;;;;;;;14.75;8.20;;;;;;;;;;6269104;22;20034;-72
2022/06/24 11:38:04;;;;;;;13.43;7.65;;;;;;;;;;6269870;22;20039;-71
2022/06/24 11:40:33;;;;;;;12.43;6.93;;;;;;;;;;6268734;22;20019;-72
2022/06/24 11:43:03;;;;;;;9.60;6.15;;;;;;;;;;6269020;22;20372;-72
2022/06/24 11:45:41;;;;;;;11.65;5.90;;;;;;;;;;6270438;22;20066;-71
2022/06/24 11:48:08;;;;;;;10.23;5.35;;;;;;;;;;6266940;22;20057;-71
2022/06/24 11:50:34;;;;;;;9.52;5.22;;;;;;;;;;6269758;22;20022;-71
2022/06/24 11:53:00;;;;;;;8.65;4.85;;;;;;;;;;6269414;22;20316;-72
2022/06/24 11:55:26;;;;;;;7.22;4.07;;;;;;;;;;6274485;22;20033;-71
2022/06/24 11:57:53;;;;;;;7.45;5.05;;;;;;;;;;6274977;22;20012;-72
2022/06/24 12:00:18;;;;;;;7.20;4.63;;;;;;;;;;6247836;22;20316;-71
2022/06/24 12:02:44;;;;;;;7.03;4.40;;;;;;;;;;6274357;22;19996;-72
2022/06/24 12:05:09;;;;;;;6.10;4.40;;;;;;;;;;6275253;22;20383;-72
2022/06/24 12:07:34;;;;;;;11.50;5.13;;;;;;;;;;6275137;22;20553;-72
2022/06/24 12:10:00;;;;;;;9.02;4.97;;;;;;;;;;6274255;22;19996;-72
2022/06/24 12:12:25;;;;;;;9.20;4.97;;;;;;;;;;6273533;22;20004;-72
2022/06/24 12:14:54;;;;;;;12.00;5.75;;;;;;;;;;6274125;22;20442;-72
2022/06/24 12:17:20;;;;;;;12.43;6.25;;;;;;;;;;6274501;22;20008;-72
2022/06/24 12:19:55;;;;;;;11.25;6.47;;;;;;;;;;6273164;22;20491;-72
2022/06/24 12:22:21;;;;;;;9.35;5.63;;;;;;;;;;6274417;22;20429;-72
2022/06/24 12:24:46;;;;;;;9.43;5.50;;;;;;;;;;6269992;22;20066;-71
2022/06/24 12:27:12;;;;;;;9.32;5.72;;;;;;;;;;6274856;22;20018;-71
2022/06/24 12:29:39;;;;;;;11.70;6.65;;;;;;;;;;6274146;22;20031;-72
2022/06/24 12:32:04;;;;;;;10.65;5.85;;;;;;;;;;6274729;22;20082;-71
2022/06/24 12:34:37;;;;;;;14.50;7.53;;;;;;;;;;6274248;22;20026;-71
2022/06/24 12:37:03;;;;;;;12.60;6.97;;;;;;;;;;6273657;22;20077;-71
2022/06/24 12:39:30;;;;;;;17.05;6.03;;;;;;;;;;6272865;22;20015;-72
2022/06/24 12:41:56;;;;;;;9.80;5.28;;;;;;;;;;6275854;22;20018;-72
2022/06/24 12:44:21;;;;;;;8.38;5.53;;;;;;;;;;6274994;22;20412;-71
2022/06/24 12:52:29;;;;;;;10.00;5.38;;;;;;;;;;6275865;22;20018;-71
2022/06/24 12:54:54;;;;;;;10.35;4.47;;;;;;;;;;6275364;22;20030;-72
2022/06/24 12:57:20;;;;;;;11.18;4.75;;;;;;;;;;6274168;22;20607;-72
2022/06/24 12:59:45;;;;;;;12.48;4.65;;;;;;;;;;6273862;22;20055;-72
2022/06/24 13:02:10;;;;;;;7.00;4.32;;;;;;;;;;6272591;22;20049;-72
2022/06/24 13:04:35;;;;;;;7.75;4.72;;;;;;;;;;6265650;22;20007;-72
2022/06/24 13:07:01;;;;;;;8.02;3.72;;;;;;;;;;6268585;22;20329;-72
2022/06/24 13:09:26;;;;;;;8.68;4.15;;;;;;;;;;6263270;22;20003;-72
2022/06/24 13:11:51;;;;;;;7.15;3.70;;;;;;;;;;6272292;22;20008;-72
2022/06/24 13:14:16;;;;;;;6.55;3.88;;;;;;;;;;6271886;22;20114;-72
2022/06/24 13:16:41;;;;;;;8.50;4.18;;;;;;;;;;6271151;22;20037;-72
2022/06/24 13:19:07;;;;;;;6.43;3.40;;;;;;;;;;6271657;22;20004;-72
2022/06/24 13:21:32;;;;;;;9.88;3.72;;;;;;;;;;6271502;22;20000;-72
2022/06/24 13:23:57;;;;;;;7.45;3.67;;;;;;;;;;6271414;22;19996;-72
2022/06/24 13:26:22;;;;;;;9.93;3.38;;;;;;;;;;6270531;22;20055;-71
2022/06/24 13:28:48;;;;;;;6.20;2.90;;;;;;;;;;6244652;22;19996;-72
2022/06/24 13:31:13;;;;;;;5.32;3.20;;;;;;;;;;6272900;22;19999;-72
2022/06/24 13:33:39;;;;;;;6.43;3.42;;;;;;;;;;6271860;22;20015;-72
2022/06/24 13:36:04;;;;;;;6.95;3.08;;;;;;;;;;6271058;22;20041;-72
2022/06/24 13:38:30;;;;;;;5.80;2.20;;;;;;;;;;6269338;22;20030;-72
2022/06/24 13:40:55;;;;;;;5.97;2.42;;;;;;;;;;6272301;22;20098;-72
2022/06/24 13:43:20;;;;;;;7.85;2.67;;;;;;;;;;6272459;22;20003;-72
2022/06/24 13:45:45;;;;;;;5.40;2.72;;;;;;;;;;6271955;22;20818;-72
2022/06/24 13:48:11;;;;;;;7.80;2.85;;;;;;;;;;6272009;22;20014;-72
2022/06/24 13:50:36;;;;;;;5.78;3.03;;;;;;;;;;6271190;22;20320;-72
2022/06/24 13:53:02;;;;;;;4.15;2.90;;;;;;;;;;6270351;22;20003;-72
2022/06/24 13:55:28;;;;;;;5.22;2.78;;;;;;;;;;6272619;22;20147;-72
2022/06/24 13:57:53;;;;;;;4.97;2.50;;;;;;;;;;6272279;22;19995;-72
2022/06/24 14:00:18;;;;;;;5.82;3.15;;;;;;;;;;6272923;22;19996;-72
2022/06/24 14:02:44;;;;;;;6.85;2.97;;;;;;;;;;6272467;22;20370;-72
2022/06/24 14:05:09;;;;;;;4.47;2.47;;;;;;;;;;6272188;22;20061;-72
2022/06/24 14:07:35;;;;;;;4.60;2.28;;;;;;;;;;6271020;22;19999;-72
2022/06/24 14:10:00;;;;;;;5.68;3.22;;;;;;;;;;6271936;22;20059;-72
2022/06/24 14:12:26;;;;;;;5.20;2.92;;;;;;;;;;6271895;22;20014;-72
2022/06/24 14:14:52;;;;;;;4.28;2.58;;;;;;;;;;6271484;22;19999;-72
2022/06/24 14:17:17;;;;;;;4.90;2.88;;;;;;;;;;6272569;22;20379;-72
2022/06/24 14:19:42;;;;;;;14.05;2.88;;;;;;;;;;6271951;22;19992;-72
2022/06/24 14:22:08;;;;;;;8.30;2.92;;;;;;;;;;6272417;22;20049;-72
2022/06/24 14:24:34;;;;;;;4.10;2.60;;;;;;;;;;6271741;22;20098;-72
2022/06/24 14:27:00;;;;;;;10.63;3.20;;;;;;;;;;6263191;22;20099;-72
2022/06/24 14:29:25;;;;;;;8.63;3.67;;;;;;;;;;6270256;22;20046;-72
2022/06/24 14:31:50;;;;;;;7.07;3.47;;;;;;;;;;6270089;22;20012;-71
2022/06/24 14:34:16;;;;;;;6.65;3.55;;;;;;;;;;6271737;22;20098;-72
2022/06/24 14:36:41;;;;;;;8.05;3.70;;;;;;;;;;6271308;22;20412;-72
2022/06/24 14:41:50;;;;;;;;;;;;;;;;;;6272405;22;20003;-71
2022/06/24 14:44:15;;;;;;;11.05;4.15;;;;;;;;;;6271089;22;20308;-71
2022/06/24 14:46:40;;;;;;;10.30;4.28;;;;;;;;;;6271060;22;20011;-72